createdAt,value
2023-05-06T00:01:00.044Z,95714.25
2023-05-06T00:03:27.031Z,95706.63
2023-05-06T00:05:53.631Z,95708.25
2023-05-06T00:08:20.066Z,95704.44
2023-05-06T00:10:46.494Z,95698.88
2023-05-06T00:13:14.404Z,95700.34
2023-05-06T00:15:40.900Z,95698.53
2023-05-06T00:18:07.432Z,95698.78
2023-05-06T00:20:33.914Z,95700.44
2023-05-06T00:23:00.427Z,95697.81
2023-05-06T00:25:26.852Z,95703.69
2023-05-06T00:27:53.307Z,95695.31
2023-05-06T00:30:21.166Z,95692.88
2023-05-06T00:32:47.606Z,95687.78
2023-05-06T00:35:14.036Z,95687.44
2023-05-06T00:37:40.471Z,95688.16
2023-05-06T00:40:07.761Z,95685.31
2023-05-06T00:42:34.291Z,95686.94
2023-05-06T00:45:00.734Z,95685.53
2023-05-06T00:47:28.564Z,95686.78
2023-05-06T00:49:54.996Z,95682.75
2023-05-06T00:52:21.424Z,95679.47
2023-05-06T00:54:47.847Z,95682.44
2023-05-06T00:57:14.371Z,95675.78
2023-05-06T00:59:40.810Z,95674.38
2023-05-06T01:02:07.270Z,95673.06
2023-05-06T01:04:35.102Z,95673.03
2023-05-06T01:07:03.734Z,95674.66
2023-05-06T01:09:32.430Z,95672.63
2023-05-06T01:11:59.833Z,95678.31
2023-05-06T01:14:28.571Z,95677.72
2023-05-06T01:16:55.617Z,95677.06
2023-05-06T01:19:28.012Z,95670.81
2023-05-06T01:21:55.819Z,95673.44
2023-05-06T01:24:23.799Z,95674.25
2023-05-06T01:26:50.195Z,95672.25
2023-05-06T01:29:16.640Z,95664.25
2023-05-06T01:31:43.901Z,95673.41
2023-05-06T01:34:12.868Z,95667.53
2023-05-06T01:36:41.190Z,95673.66
2023-05-06T01:39:12.471Z,95667.56
2023-05-06T01:41:40.523Z,95669.59
2023-05-06T01:44:07.191Z,95673.06
2023-05-06T01:46:33.772Z,95672.63
2023-05-06T01:49:01.495Z,95678.72
2023-05-06T01:51:27.994Z,95679.03
2023-05-06T01:53:54.438Z,95681.25
2023-05-06T01:56:20.904Z,95682.50
2023-05-06T01:58:48.734Z,95682.28
2023-05-06T02:01:15.280Z,95676.59
2023-05-06T02:03:41.859Z,95676.97
2023-05-06T02:06:08.361Z,95677.38
2023-05-06T02:08:35.093Z,95682.53
2023-05-06T02:11:01.715Z,95679.50
2023-05-06T02:13:28.407Z,95679.88
2023-05-06T02:15:56.456Z,95673.63
2023-05-06T02:18:23.260Z,95683.59
2023-05-06T02:20:49.877Z,95684.38
2023-05-06T02:23:16.591Z,95684.41
2023-05-06T02:25:43.379Z,95681.56
2023-05-06T02:28:10.024Z,95682.34
2023-05-06T02:30:36.712Z,95687.44
2023-05-06T02:33:04.828Z,95685.84
2023-05-06T02:35:31.500Z,95687.03
2023-05-06T02:37:58.627Z,95688.25
2023-05-06T02:40:25.281Z,95683.38
2023-05-06T02:42:52.006Z,95676.91
2023-05-06T02:45:18.797Z,95671.44
2023-05-06T02:47:45.486Z,95674.84
2023-05-06T02:50:13.626Z,95669.00
2023-05-06T02:52:40.232Z,95666.16
2023-05-06T02:55:07.717Z,95663.31
2023-05-06T02:57:34.529Z,95673.84
2023-05-06T03:00:01.245Z,95663.69
2023-05-06T03:02:27.939Z,95674.66
2023-05-06T03:04:54.651Z,95674.41
2023-05-06T03:07:22.728Z,95664.94
2023-05-06T03:09:49.419Z,95664.72
2023-05-06T03:12:16.152Z,95663.72
2023-05-06T03:14:42.805Z,95663.28
2023-05-06T03:17:09.538Z,95657.63
2023-05-06T03:19:36.213Z,95665.31
2023-05-06T03:22:02.948Z,95657.03
2023-05-06T03:24:31.026Z,95652.81
2023-05-06T03:26:57.670Z,95656.63
2023-05-06T03:29:24.383Z,95663.91
2023-05-06T03:31:51.133Z,95658.44
2023-05-06T03:34:18.064Z,95658.84
2023-05-06T03:36:45.681Z,95654.59
2023-05-06T03:39:12.458Z,95658.06
2023-05-06T03:41:40.525Z,95649.16
2023-05-06T03:44:07.188Z,95656.00
2023-05-06T03:46:33.925Z,95653.19
2023-05-06T03:49:00.680Z,95656.41
2023-05-06T03:51:27.391Z,95652.16
2023-05-06T03:53:54.953Z,95660.06
2023-05-06T03:56:21.852Z,95644.03
2023-05-06T03:58:49.906Z,95640.81
2023-05-06T04:01:16.600Z,95652.81
2023-05-06T04:03:43.485Z,95652.38
2023-05-06T04:06:10.279Z,95662.50
2023-05-06T04:08:36.937Z,95664.94
2023-05-06T04:11:07.274Z,95652.19
2023-05-06T04:13:34.308Z,95662.09
2023-05-06T04:16:02.517Z,95664.72
2023-05-06T04:18:29.218Z,95667.38
2023-05-06T04:20:55.931Z,95670.63
2023-05-06T04:23:22.597Z,95679.56
2023-05-06T04:25:49.246Z,95677.94
2023-05-06T04:28:16.348Z,95676.28
2023-05-06T04:30:43.418Z,95684.59
2023-05-06T04:33:11.806Z,95682.59
2023-05-06T04:35:38.833Z,95692.13
2023-05-06T04:38:05.576Z,95681.59
2023-05-06T04:40:32.293Z,95688.47
2023-05-06T04:42:59.020Z,95697.00
2023-05-06T04:45:26.245Z,95703.06
2023-05-06T04:47:53.038Z,95700.63
2023-05-06T04:50:21.138Z,95698.00
2023-05-06T04:52:47.764Z,95707.72
2023-05-06T04:55:14.700Z,95712.94
2023-05-06T04:57:41.326Z,95706.59
2023-05-06T05:00:09.144Z,95706.97
2023-05-06T05:02:36.070Z,95705.19
2023-05-06T05:05:02.823Z,95715.13
2023-05-06T05:07:30.908Z,95717.78
2023-05-06T05:09:57.627Z,95706.66
2023-05-06T05:12:24.332Z,95712.69
2023-05-06T05:14:50.987Z,95711.84
2023-05-06T05:17:17.697Z,95715.25
2023-05-06T05:19:44.437Z,95718.97
2023-05-06T05:22:11.109Z,95718.13
2023-05-06T05:24:39.153Z,95716.19
2023-05-06T05:27:05.807Z,95722.47
2023-05-06T05:29:32.420Z,95712.38
2023-05-06T05:31:59.303Z,95713.34
2023-05-06T05:34:25.994Z,95719.88
2023-05-06T05:36:52.726Z,95729.09
2023-05-06T05:39:19.392Z,95724.69
2023-05-06T05:41:47.447Z,95735.00
2023-05-06T05:44:14.094Z,95733.00
2023-05-06T05:46:41.151Z,95725.81
2023-05-06T05:49:07.884Z,95724.59
2023-05-06T05:51:34.654Z,95718.22
2023-05-06T05:54:01.477Z,95722.72
2023-05-06T05:56:28.142Z,95738.22
2023-05-06T05:58:56.340Z,95736.34
2023-05-06T06:01:23.149Z,95733.13
2023-05-06T06:03:50.114Z,95726.25
2023-05-06T06:06:17.037Z,95734.69
2023-05-06T06:08:43.945Z,95732.81
2023-05-06T06:11:10.829Z,95732.56
2023-05-06T06:13:37.503Z,95726.56
2023-05-06T06:16:06.440Z,95746.19
2023-05-06T06:18:33.119Z,95751.25
2023-05-06T06:20:59.927Z,95753.38
2023-05-06T06:23:26.650Z,95755.38
2023-05-06T06:25:53.360Z,95755.63
2023-05-06T06:28:20.144Z,95764.38
2023-05-06T06:30:47.020Z,95758.97
2023-05-06T06:33:15.045Z,95760.31
2023-05-06T06:35:41.729Z,95747.03
2023-05-06T06:38:08.372Z,95758.06
2023-05-06T06:40:35.090Z,95764.66
2023-05-06T06:43:01.753Z,95770.72
2023-05-06T06:45:28.538Z,95764.94
2023-05-06T06:47:55.322Z,95765.72
2023-05-06T06:50:23.469Z,95767.66
2023-05-06T06:52:50.108Z,95768.22
2023-05-06T06:55:16.774Z,95768.03
2023-05-06T06:57:43.442Z,95765.59
2023-05-06T07:00:11.200Z,95763.81
2023-05-06T07:02:38.112Z,95769.09
2023-05-06T07:05:05.463Z,95768.53
2023-05-06T07:07:33.524Z,95769.03
2023-05-06T07:10:00.206Z,95755.81
2023-05-06T07:12:26.885Z,95758.19
2023-05-06T07:14:53.631Z,95751.88
2023-05-06T07:17:20.351Z,95753.38
2023-05-06T07:19:47.065Z,95766.00
2023-05-06T07:22:13.764Z,95760.53
2023-05-06T07:24:41.875Z,95769.03
2023-05-06T07:27:08.631Z,95761.03
2023-05-06T07:29:35.347Z,95765.88
2023-05-06T07:32:02.105Z,95766.31
2023-05-06T07:34:28.786Z,95771.72
2023-05-06T07:36:55.501Z,95765.19
2023-05-06T07:39:22.138Z,95762.03
2023-05-06T07:41:50.158Z,95773.19
2023-05-06T07:44:16.875Z,95777.94
2023-05-06T07:46:43.582Z,95775.53
2023-05-06T07:49:10.362Z,95780.63
2023-05-06T07:51:36.989Z,95783.69
2023-05-06T07:54:03.882Z,95789.63
2023-05-06T07:56:30.574Z,95785.88
2023-05-06T07:58:58.654Z,95794.41
2023-05-06T08:01:25.438Z,95794.25
2023-05-06T08:03:52.154Z,95797.81
2023-05-06T08:06:18.960Z,95798.03
2023-05-06T08:08:45.622Z,95800.09
2023-05-06T08:11:12.317Z,95805.03
2023-05-06T08:13:39.120Z,95802.50
2023-05-06T08:16:07.861Z,95803.25
2023-05-06T08:18:34.645Z,95800.34
2023-05-06T08:21:01.359Z,95798.16
2023-05-06T08:23:28.058Z,95794.28
2023-05-06T08:25:54.839Z,95795.75
2023-05-06T08:28:22.498Z,95792.97
2023-05-06T08:30:50.716Z,95792.34
2023-05-06T08:33:18.884Z,95797.31
2023-05-06T08:35:46.609Z,95795.22
2023-05-06T08:38:13.307Z,95791.22
2023-05-06T08:40:42.535Z,95793.38
2023-05-06T08:43:12.758Z,95796.34
2023-05-06T08:45:39.832Z,95800.38
2023-05-06T08:48:06.661Z,95800.75
2023-05-06T08:50:37.204Z,95803.59
2023-05-06T08:53:03.929Z,95808.09
2023-05-06T08:55:31.083Z,95801.31
2023-05-06T08:57:58.150Z,95804.41
2023-05-06T09:00:25.089Z,95800.97
2023-05-06T09:02:51.787Z,95796.69
2023-05-06T09:05:18.682Z,95796.78
2023-05-06T09:07:46.730Z,95794.50
2023-05-06T09:10:14.110Z,95790.69
2023-05-06T09:12:41.071Z,95802.03
2023-05-06T09:15:09.748Z,95790.94
2023-05-06T09:17:36.694Z,95784.19
2023-05-06T09:20:04.051Z,95794.97
2023-05-06T09:22:31.771Z,95795.09
2023-05-06T09:25:00.010Z,95787.06
2023-05-06T09:27:28.270Z,95787.00
2023-05-06T09:30:02.213Z,95790.91
2023-05-06T09:32:29.316Z,95794.13
2023-05-06T09:34:56.278Z,95791.25
2023-05-06T09:37:23.443Z,95789.63
2023-05-06T09:39:50.544Z,95801.22
2023-05-06T09:42:18.693Z,95788.97
2023-05-06T09:44:46.082Z,95795.94
2023-05-06T09:47:12.795Z,95792.59
2023-05-06T09:49:39.572Z,95795.66
2023-05-06T09:52:07.093Z,95789.50
2023-05-06T09:54:34.279Z,95786.53
2023-05-06T09:57:01.287Z,95779.25
2023-05-06T09:59:30.281Z,95784.50
2023-05-06T10:01:58.676Z,95789.06
2023-05-06T10:04:26.805Z,95786.78
2023-05-06T10:06:55.339Z,95787.88
2023-05-06T10:09:24.133Z,95788.38
2023-05-06T10:11:51.527Z,95782.81
2023-05-06T10:14:18.273Z,95782.38
2023-05-06T10:16:46.159Z,95788.91
2023-05-06T10:19:12.619Z,95775.28
2023-05-06T10:21:39.700Z,95770.31
2023-05-06T10:24:07.254Z,95770.44
2023-05-06T10:26:33.934Z,95758.25
2023-05-06T10:29:00.403Z,95755.25
2023-05-06T10:31:27.028Z,95756.13
2023-05-06T10:33:55.081Z,95749.94
2023-05-06T10:36:22.043Z,95749.59
2023-05-06T10:38:48.941Z,95747.00
2023-05-06T10:41:15.395Z,95737.03
2023-05-06T10:43:42.540Z,95743.78
2023-05-06T10:46:09.472Z,95746.19
2023-05-06T10:48:36.462Z,95737.88
2023-05-06T10:51:26.136Z,95733.63
2023-05-06T10:53:56.084Z,95738.75
2023-05-06T10:56:22.570Z,95717.63
2023-05-06T10:58:49.015Z,95723.69
2023-05-06T11:01:15.494Z,95718.31
2023-05-06T11:03:42.127Z,95710.69
2023-05-06T11:06:08.549Z,95704.78
2023-05-06T11:08:36.324Z,95699.63
2023-05-06T11:11:02.786Z,95702.94
2023-05-06T11:13:29.610Z,95705.28
2023-05-06T11:15:56.379Z,95705.16
2023-05-06T11:18:41.361Z,95708.13
2023-05-06T11:21:26.482Z,95695.94
2023-05-06T11:24:10.602Z,95707.63
2023-05-06T11:26:37.036Z,95710.78
2023-05-06T11:29:03.467Z,95724.56
2023-05-06T11:31:30.171Z,95720.50
2023-05-06T11:33:56.779Z,95721.16
2023-05-06T11:36:23.274Z,95710.41
2023-05-06T11:38:50.391Z,95715.47
2023-05-06T11:41:18.498Z,95714.72
2023-05-06T11:43:45.868Z,95708.38
2023-05-06T11:46:12.366Z,95711.00
2023-05-06T11:48:38.822Z,95701.47
2023-05-06T11:51:05.353Z,95692.81
2023-05-06T11:53:31.904Z,95695.47
2023-05-06T11:55:58.366Z,95695.69
2023-05-06T11:58:27.152Z,95691.63
2023-05-06T12:00:54.105Z,95695.97
2023-05-06T12:03:20.788Z,95709.97
2023-05-06T12:05:47.448Z,95703.25
2023-05-06T12:08:26.178Z,95695.84
2023-05-06T12:10:53.777Z,95695.50
2023-05-06T12:13:20.340Z,95689.38
2023-05-06T12:15:48.307Z,95692.69
2023-05-06T12:18:14.727Z,95689.56
2023-05-06T12:20:41.192Z,95693.69
2023-05-06T12:23:07.844Z,95684.91
2023-05-06T12:25:34.304Z,95678.66
2023-05-06T12:28:00.778Z,95676.69
2023-05-06T12:30:30.125Z,95670.50
2023-05-06T12:32:58.097Z,95681.41
2023-05-06T12:35:25.012Z,95671.25
2023-05-06T12:37:51.491Z,95677.56
2023-05-06T12:40:18.123Z,95679.38
2023-05-06T12:42:44.581Z,95680.53
2023-05-06T12:45:14.276Z,95672.25
2023-05-06T12:47:41.259Z,95668.44
2023-05-06T12:50:09.749Z,95680.81
2023-05-06T12:52:43.120Z,95668.81
2023-05-06T12:55:09.764Z,95668.00
2023-05-06T12:57:36.268Z,95672.50
2023-05-06T13:00:02.839Z,95671.69
2023-05-06T13:02:29.379Z,95671.31
2023-05-06T13:04:55.867Z,95663.03
2023-05-06T13:07:23.705Z,95661.47
2023-05-06T13:12:16.366Z,95652.00
2023-05-06T13:14:42.822Z,95644.94
2023-05-06T13:17:09.522Z,95643.84
2023-05-06T13:19:36.132Z,95644.63
2023-05-06T13:22:02.672Z,95641.31
2023-05-06T13:24:30.693Z,95636.22
2023-05-06T13:26:57.566Z,95637.38
2023-05-06T13:29:24.117Z,95628.16
2023-05-06T13:31:50.559Z,95626.00
2023-05-06T13:34:17.047Z,95628.59
2023-05-06T13:36:43.524Z,95621.22
2023-05-06T13:39:09.957Z,95633.81
2023-05-06T13:41:37.794Z,95629.19
2023-05-06T13:44:04.434Z,95624.97
2023-05-06T13:46:30.896Z,95624.22
2023-05-06T13:48:57.570Z,95620.06
2023-05-06T13:51:24.035Z,95613.66
2023-05-06T13:53:50.557Z,95611.59
2023-05-06T13:56:17.051Z,95612.03
2023-05-06T13:58:45.041Z,95609.91
2023-05-06T14:01:11.529Z,95606.50
2023-05-06T14:03:37.963Z,95609.31
2023-05-06T14:06:04.680Z,95604.22
2023-05-06T14:08:31.134Z,95602.94
2023-05-06T14:10:57.572Z,95600.31
2023-05-06T14:13:24.161Z,95605.31
2023-05-06T14:15:52.072Z,95606.34
2023-05-06T14:18:18.586Z,95601.09
2023-05-06T14:20:45.055Z,95595.75
2023-05-06T14:23:11.467Z,95599.50
2023-05-06T14:25:37.965Z,95597.97
2023-05-06T14:28:04.432Z,95596.69
2023-05-06T14:30:30.990Z,95596.25
2023-05-06T14:32:58.972Z,95587.47
2023-05-06T14:35:25.576Z,95594.66
2023-05-06T14:37:52.201Z,95589.91
2023-05-06T14:40:18.657Z,95593.50
2023-05-06T14:42:45.168Z,95595.13
2023-05-06T14:45:12.185Z,95591.97
2023-05-06T14:47:39.019Z,95592.75
2023-05-06T14:50:07.980Z,95585.63
2023-05-06T14:52:34.427Z,95583.38
2023-05-06T14:55:00.864Z,95582.00
2023-05-06T14:57:27.332Z,95579.66
2023-05-06T14:59:53.850Z,95578.06
2023-05-06T15:02:20.309Z,95575.97
2023-05-06T15:04:46.833Z,95576.13
2023-05-06T15:07:14.660Z,95570.25
2023-05-06T15:09:41.144Z,95578.06
2023-05-06T15:12:07.726Z,95572.81
2023-05-06T15:14:34.207Z,95577.84
2023-05-06T15:17:00.785Z,95580.31
2023-05-06T15:19:27.235Z,95573.03
2023-05-06T15:21:53.712Z,95575.56
2023-05-06T15:24:21.560Z,95568.06
2023-05-06T15:26:47.974Z,95570.59
2023-05-06T15:29:14.385Z,95571.25
2023-05-06T15:31:41.045Z,95576.91
2023-05-06T15:34:08.812Z,95578.00
2023-05-06T15:36:35.294Z,95578.50
2023-05-06T15:39:01.740Z,95583.44
2023-05-06T15:41:30.555Z,95582.69
2023-05-06T15:43:58.284Z,95587.41
2023-05-06T15:46:25.214Z,95585.63
2023-05-06T15:49:00.106Z,95585.09
2023-05-06T15:51:38.177Z,95576.09
2023-05-06T15:54:04.702Z,95582.28
2023-05-06T15:56:39.289Z,95570.03
2023-05-06T15:59:07.743Z,95570.16
2023-05-06T16:02:04.808Z,95577.28
2023-05-06T16:04:20.859Z,95572.41
2023-05-06T16:06:47.504Z,95573.97
2023-05-06T16:09:13.923Z,95569.72
2023-05-06T16:11:41.774Z,95576.41
2023-05-06T16:14:08.220Z,95571.28
2023-05-06T16:16:35.215Z,95573.41
2023-05-06T16:19:01.824Z,95575.03
2023-05-06T16:21:28.245Z,95568.88
2023-05-06T16:23:54.707Z,95570.34
2023-05-06T16:26:21.143Z,95565.03
2023-05-06T16:28:48.977Z,95570.38
2023-05-06T16:31:15.499Z,95565.88
2023-05-06T16:33:41.932Z,95568.69
2023-05-06T16:36:08.613Z,95567.50
2023-05-06T16:38:35.103Z,95570.03
2023-05-06T16:41:01.578Z,95564.00
2023-05-06T16:43:28.049Z,95560.63
2023-05-06T16:45:55.835Z,95569.66
2023-05-06T16:48:22.607Z,95570.59
2023-05-06T16:50:49.152Z,95564.13
2023-05-06T16:53:15.560Z,95566.53
2023-05-06T16:55:45.603Z,95566.84
2023-05-06T16:58:12.023Z,95564.69
2023-05-06T17:00:38.493Z,95554.19
2023-05-06T17:03:06.416Z,95562.59
2023-05-06T17:05:32.983Z,95560.78
2023-05-06T17:07:59.453Z,95557.00
2023-05-06T17:10:25.928Z,95556.91
2023-05-06T17:12:52.383Z,95564.81
2023-05-06T17:15:18.897Z,95567.59
2023-05-06T17:17:45.373Z,95566.66
2023-05-06T17:20:13.742Z,95561.16
2023-05-06T17:22:40.261Z,95558.31
2023-05-06T17:25:07.068Z,95559.44
2023-05-06T17:27:33.572Z,95558.44
2023-05-06T17:30:00.026Z,95552.88
2023-05-06T17:32:26.505Z,95554.97
2023-05-06T17:34:53.012Z,95551.78
2023-05-06T17:37:20.793Z,95558.22
2023-05-06T17:39:47.263Z,95558.22
2023-05-06T17:42:13.737Z,95564.31
2023-05-06T17:44:40.234Z,95565.06
2023-05-06T17:47:06.696Z,95563.69
2023-05-06T17:49:33.138Z,95572.94
2023-05-06T17:52:01.562Z,95573.91
2023-05-06T17:54:30.075Z,95571.56
2023-05-06T17:56:56.536Z,95564.38
2023-05-06T17:59:22.995Z,95568.41
2023-05-06T18:01:49.697Z,95574.59
2023-05-06T18:04:33.678Z,95570.72
2023-05-06T18:07:00.120Z,95581.00
2023-05-06T18:09:26.587Z,95579.56
2023-05-06T18:11:54.496Z,95578.31
2023-05-06T18:14:22.797Z,95576.22
2023-05-06T18:16:49.239Z,95576.19
2023-05-06T18:19:15.628Z,95579.81
2023-05-06T18:21:42.088Z,95577.69
2023-05-06T18:24:16.138Z,95576.91
2023-05-06T18:26:44.815Z,95584.97
2023-05-06T18:29:13.457Z,95572.94
2023-05-06T18:31:45.661Z,95580.41
2023-05-06T18:34:20.476Z,95577.56
2023-05-06T18:36:46.949Z,95588.75
2023-05-06T18:39:13.393Z,95583.13
2023-05-06T18:41:39.850Z,95580.06
2023-05-06T18:44:06.290Z,95587.53
2023-05-06T18:46:34.139Z,95591.00
2023-05-06T18:49:00.600Z,95596.59
2023-05-06T18:51:27.098Z,95598.31
2023-05-06T18:53:53.543Z,95591.09
2023-05-06T18:56:20.021Z,95597.44
2023-05-06T18:58:46.438Z,95592.44
2023-05-06T19:01:12.914Z,95602.13
2023-05-06T19:03:40.835Z,95611.03
2023-05-06T19:06:07.361Z,95601.22
2023-05-06T19:08:33.821Z,95600.50
2023-05-06T19:11:00.331Z,95612.28
2023-05-06T19:13:26.818Z,95607.41
2023-05-06T19:15:53.323Z,95607.91
2023-05-06T19:18:19.728Z,95603.03
2023-05-06T19:20:47.553Z,95604.78
2023-05-06T19:23:13.970Z,95604.38
2023-05-06T19:25:40.499Z,95607.75
2023-05-06T19:28:06.953Z,95607.88
2023-05-06T19:30:34.255Z,95607.88
2023-05-06T19:33:00.939Z,95604.88
2023-05-06T19:35:27.437Z,95610.25
2023-05-06T19:37:55.277Z,95610.38
2023-05-06T19:40:21.705Z,95615.34
2023-05-06T19:42:48.124Z,95611.41
2023-05-06T19:45:16.715Z,95609.78
2023-05-06T19:47:45.395Z,95615.44
2023-05-06T19:50:12.157Z,95617.19
2023-05-06T19:52:38.716Z,95622.38
2023-05-06T19:55:07.204Z,95618.31
2023-05-06T19:57:33.917Z,95618.69
2023-05-06T20:00:00.547Z,95611.31
2023-05-06T20:02:27.027Z,95613.72
2023-05-06T20:04:53.619Z,95619.59
2023-05-06T20:07:21.058Z,95610.63
2023-05-06T20:09:48.185Z,95615.69
2023-05-06T20:12:16.016Z,95607.38
2023-05-06T20:14:42.483Z,95611.06
2023-05-06T20:17:08.974Z,95610.03
2023-05-06T20:19:35.412Z,95609.09
2023-05-06T20:22:01.854Z,95605.16
2023-05-06T20:24:28.800Z,95608.06
2023-05-06T20:26:55.310Z,95610.25
2023-05-06T20:29:23.091Z,95605.75
2023-05-06T20:31:49.642Z,95606.78
2023-05-06T20:34:16.130Z,95608.41
2023-05-06T20:36:42.653Z,95609.78
2023-05-06T20:39:09.246Z,95612.34
2023-05-06T20:41:35.845Z,95603.59
2023-05-06T20:44:02.311Z,95613.94
2023-05-06T20:46:30.167Z,95610.59
2023-05-06T20:48:56.753Z,95613.81
2023-05-06T20:51:23.175Z,95612.66
2023-05-06T20:53:49.620Z,95612.16
2023-05-06T20:56:16.445Z,95613.66
2023-05-06T20:58:42.984Z,95615.25
2023-05-06T21:01:09.477Z,95615.19
2023-05-06T21:03:37.376Z,95611.72
2023-05-06T21:06:03.914Z,95618.09
2023-05-06T21:08:30.404Z,95605.44
2023-05-06T21:10:56.828Z,95605.47
2023-05-06T21:13:23.502Z,95604.44
2023-05-06T21:15:50.165Z,95604.75
2023-05-06T21:18:17.007Z,95602.69
2023-05-06T21:20:45.107Z,95602.41
2023-05-06T21:23:11.551Z,95607.44
2023-05-06T21:25:38.002Z,95606.25
2023-05-06T21:28:04.593Z,95609.50
2023-05-06T21:30:31.023Z,95606.09
2023-05-06T21:32:57.507Z,95610.25
2023-05-06T21:35:24.005Z,95603.09
2023-05-06T21:37:51.829Z,95616.72
2023-05-06T21:40:18.395Z,95612.13
2023-05-06T21:42:44.800Z,95605.81
2023-05-06T21:45:11.890Z,95610.25
2023-05-06T21:47:38.568Z,95608.53
2023-05-06T21:50:05.548Z,95616.22
2023-05-06T21:52:32.498Z,95615.56
2023-05-06T21:55:00.293Z,95613.78
2023-05-06T21:57:26.802Z,95615.91
2023-05-06T21:59:53.285Z,95621.00
2023-05-06T22:02:19.779Z,95622.13
2023-05-06T22:04:46.350Z,95614.41
2023-05-06T22:07:12.751Z,95624.22
2023-05-06T22:09:39.215Z,95621.66
2023-05-06T22:12:07.082Z,95614.84
2023-05-06T22:14:40.518Z,95618.56
2023-05-06T22:17:07.780Z,95618.84
2023-05-06T22:19:34.343Z,95609.00
2023-05-06T22:22:01.271Z,95606.97
2023-05-06T22:24:27.775Z,95605.94
2023-05-06T22:26:54.181Z,95607.91
2023-05-06T22:29:22.046Z,95608.94
2023-05-06T22:31:48.504Z,95607.41
2023-05-06T22:34:15.008Z,95603.38
2023-05-06T22:36:41.417Z,95599.59
2023-05-06T22:39:07.854Z,95606.66
2023-05-06T22:41:34.305Z,95597.41
2023-05-06T22:44:00.743Z,95591.81
2023-05-06T22:46:28.848Z,95593.16
2023-05-06T22:48:55.324Z,95596.13
2023-05-06T22:51:21.839Z,95594.16
2023-05-06T22:53:48.263Z,95594.41
2023-05-06T22:56:14.871Z,95583.22
2023-05-06T22:58:41.297Z,95578.00
2023-05-06T23:01:07.897Z,95580.22
2023-05-06T23:03:36.131Z,95585.88
2023-05-06T23:06:02.675Z,95582.03
2023-05-06T23:08:29.078Z,95588.13
2023-05-06T23:10:55.520Z,95586.41
2023-05-06T23:13:22.012Z,95584.13
2023-05-06T23:15:48.469Z,95590.50
2023-05-06T23:18:14.923Z,95581.69
2023-05-06T23:20:42.837Z,95576.09
2023-05-06T23:23:09.247Z,95577.50
2023-05-06T23:25:35.734Z,95572.94
2023-05-06T23:28:02.161Z,95571.84
2023-05-06T23:30:28.786Z,95578.91
2023-05-06T23:32:55.586Z,95580.91
2023-05-06T23:35:22.108Z,95582.28
2023-05-06T23:37:49.940Z,95583.75
2023-05-06T23:40:16.386Z,95572.09
2023-05-06T23:42:42.826Z,95575.41
2023-05-06T23:45:09.848Z,95579.78
2023-05-06T23:47:36.461Z,95571.63
2023-05-06T23:50:03.060Z,95576.50
2023-05-06T23:52:29.588Z,95581.78
2023-05-06T23:54:57.390Z,95589.97
2023-05-06T23:57:23.877Z,95590.31
2023-05-06T23:59:50.287Z,95583.06
